^^
Meteo Knjazevac Station Historical Data
Daily Summary for July 23, 2022 Units:  Both    English   Metric
Daily Weekly Monthly Yearly Custom
  High: Low: Average:
Temperature: 46.3 °F /  7.9 °C 42.3 °F /  5.7 °C 43.4 °F /  6.3 °C
Dew Point: 46 °F /  7.8 °C 42 °F /  5.6 °C 43.1 °F /  6.2 °C
Humidity: 99% 99% 99%
Wind Speed: 7.8mph /  12.6km/h - 2.9mph /  4.7km/h
Wind Gust: 10mph /  16.1km/h - -
Wind- - East
Pressure: 29.68 in /  1005 hPa 29.64 in /  1003.6 hPa -
Precipitation: 0.00 in /  0 mm    
Historical Graphs
 
 
Tabular Data for July 23, 2022
Time Temperature Dew Point Pressure Wind Wind Speed Wind Gust Humidity Rainfall Rate (Hourly) solar Conditions
00:04 44.4 °F /  6.9 °C 44.2 °F /  6.8 °C 29.67in /  1004.6hPa NE 6.8mph /  10.9km/h 5.4mph /  8.7km/h 99% 0.00in /  0mm 0 W/m2
00:09 44.4 °F /  6.9 °C 44.2 °F /  6.8 °C 29.67in /  1004.6hPa North 7.5mph /  12.1km/h 10mph /  16.1km/h 99% 0.00in /  0mm 0 W/m2
00:14 44.4 °F /  6.9 °C 44.2 °F /  6.8 °C 29.67in /  1004.6hPa North 5.3mph /  8.5km/h 10mph /  16.1km/h 99% 0.00in /  0mm 0 W/m2
00:19 44.4 °F /  6.9 °C 44.2 °F /  6.8 °C 29.67in /  1004.6hPa NNE 4.7mph /  7.6km/h 7mph /  11.3km/h 99% 0.00in /  0mm 0 W/m2
00:24 44.4 °F /  6.9 °C 44.2 °F /  6.8 °C 29.67in /  1004.6hPa NNE 4.3mph /  6.9km/h 5mph /  8km/h 99% 0.00in /  0mm 0 W/m2
00:29 44.4 °F /  6.9 °C 44.2 °F /  6.8 °C 29.67in /  1004.6hPa North 4.4mph /  7.1km/h 5mph /  8km/h 99% 0.00in /  0mm 0 W/m2
00:34 44.3 °F /  6.8 °C 44.1 °F /  6.7 °C 29.67in /  1004.6hPa NNE 3.2mph /  5.1km/h 5mph /  8km/h 99% 0.00in /  0mm 0 W/m2
00:39 44.2 °F /  6.8 °C 44 °F /  6.7 °C 29.67in /  1004.6hPa NNE 5.2mph /  8.4km/h 4.5mph /  7.2km/h 99% 0.00in /  0mm 0 W/m2
00:44 44.2 °F /  6.8 °C 43.9 °F /  6.6 °C 29.66in /  1004.3hPa NNE 4.4mph /  7.1km/h 6mph /  9.7km/h 99% 0.00in /  0mm 0 W/m2
00:49 44 °F /  6.7 °C 43.7 °F /  6.5 °C 29.66in /  1004.3hPa NNE 4.9mph /  7.9km/h 5mph /  8km/h 99% 0.00in /  0mm 0 W/m2
00:54 43.7 °F /  6.5 °C 43.4 °F /  6.3 °C 29.66in /  1004.3hPa North 5.7mph /  9.2km/h 6mph /  9.7km/h 99% 0.00in /  0mm 0 W/m2
00:59 43.5 °F /  6.4 °C 43.3 °F /  6.3 °C 29.66in /  1004.3hPa NNE 4.5mph /  7.2km/h 7mph /  11.3km/h 99% 0.00in /  0mm 0 W/m2
01:04 43.3 °F /  6.3 °C 43.1 °F /  6.2 °C 29.66in /  1004.3hPa NNE 2.5mph /  4km/h 5mph /  8km/h 99% 0.00in /  0mm 0 W/m2
01:09 43.2 °F /  6.2 °C 42.9 °F /  6.1 °C 29.66in /  1004.3hPa NNE 5.5mph /  8.9km/h 5.6mph /  9km/h 99% 0.00in /  0mm 0 W/m2
01:14 43 °F /  6.1 °C 42.7 °F /  5.9 °C 29.66in /  1004.3hPa NNE 7.8mph /  12.6km/h 10mph /  16.1km/h 99% 0.00in /  0mm 0 W/m2
01:19 43 °F /  6.1 °C 42.7 °F /  5.9 °C 29.66in /  1004.3hPa NNE 4.4mph /  7.1km/h 9mph /  14.5km/h 99% 0.00in /  0mm 0 W/m2
01:24 42.8 °F /  6 °C 42.5 °F /  5.8 °C 29.66in /  1004.3hPa NNE 5.2mph /  8.4km/h 6mph /  9.7km/h 99% 0.00in /  0mm 0 W/m2
01:29 42.8 °F /  6 °C 42.5 °F /  5.8 °C 29.66in /  1004.3hPa North 5.8mph /  9.3km/h 8mph /  12.9km/h 99% 0.00in /  0mm 0 W/m2
01:34 42.8 °F /  6 °C 42.5 °F /  5.8 °C 29.66in /  1004.3hPa North 3.3mph /  5.3km/h 8mph /  12.9km/h 99% 0.00in /  0mm 0 W/m2
01:39 42.8 °F /  6 °C 42.5 °F /  5.8 °C 29.66in /  1004.3hPa North 3.4mph /  5.5km/h 3mph /  4.8km/h 99% 0.00in /  0mm 0 W/m2
01:44 42.7 °F /  5.9 °C 42.5 °F /  5.8 °C 29.66in /  1004.3hPa NNE 3.3mph /  5.3km/h 4mph /  6.4km/h 99% 0.00in /  0mm 0 W/m2
01:49 42.6 °F /  5.9 °C 42.4 °F /  5.8 °C 29.66in /  1004.3hPa North 2.9mph /  4.7km/h 5mph /  8km/h 99% 0.00in /  0mm 0 W/m2
01:54 42.6 °F /  5.9 °C 42.4 °F /  5.8 °C 29.65in /  1003.9hPa North 3.5mph /  5.6km/h 3.4mph /  5.5km/h 99% 0.00in /  0mm 0 W/m2
01:59 42.6 °F /  5.9 °C 42.4 °F /  5.8 °C 29.65in /  1003.9hPa North 4.1mph /  6.6km/h 5mph /  8km/h 99% 0.00in /  0mm 0 W/m2
02:04 42.6 °F /  5.9 °C 42.4 °F /  5.8 °C 29.65in /  1003.9hPa North 4.2mph /  6.8km/h 5mph /  8km/h 99% 0.00in /  0mm 0 W/m2
02:09 42.6 °F /  5.9 °C 42.4 °F /  5.8 °C 29.65in /  1003.9hPa North 2.8mph /  4.5km/h 5mph /  8km/h 99% 0.00in /  0mm 0 W/m2
02:14 42.6 °F /  5.9 °C 42.4 °F /  5.8 °C 29.65in /  1003.9hPa North 2.7mph /  4.3km/h 3mph /  4.8km/h 99% 0.00in /  0mm 0 W/m2
02:19 42.6 °F /  5.9 °C 42.4 °F /  5.8 °C 29.65in /  1003.9hPa NNE 2.4mph /  3.9km/h 3mph /  4.8km/h 99% 0.00in /  0mm 0 W/m2
02:24 42.6 °F /  5.9 °C 42.4 °F /  5.8 °C 29.65in /  1003.9hPa NNE 1.8mph /  2.9km/h 3mph /  4.8km/h 99% 0.00in /  0mm 0 W/m2
02:29 42.6 °F /  5.9 °C 42.4 °F /  5.8 °C 29.65in /  1003.9hPa NE 1.7mph /  2.7km/h 2mph /  3.2km/h 99% 0.00in /  0mm 0 W/m2
02:34 42.4 °F /  5.8 °C 42.2 °F /  5.7 °C 29.65in /  1003.9hPa NNE 2mph /  3.2km/h 2mph /  3.2km/h 99% 0.00in /  0mm 0 W/m2
02:39 42.4 °F /  5.8 °C 42.2 °F /  5.7 °C 29.64in /  1003.6hPa NNE 2.8mph /  4.5km/h 2mph /  3.2km/h 99% 0.00in /  0mm 0 W/m2
02:44 42.4 °F /  5.8 °C 42.2 °F /  5.7 °C 29.65in /  1003.9hPa North 3.8mph /  6.1km/h 4mph /  6.4km/h 99% 0.00in /  0mm 0 W/m2
02:49 42.4 °F /  5.8 °C 42.2 °F /  5.7 °C 29.65in /  1003.9hPa North 3.3mph /  5.3km/h 5mph /  8km/h 99% 0.00in /  0mm 0 W/m2
02:54 42.4 °F /  5.8 °C 42.2 °F /  5.7 °C 29.65in /  1003.9hPa NW 2.5mph /  4km/h 5mph /  8km/h 99% 0.00in /  0mm 0 W/m2
02:59 42.4 °F /  5.8 °C 42.2 °F /  5.7 °C 29.65in /  1003.9hPa WNW 2.3mph /  3.7km/h 3mph /  4.8km/h 99% 0.00in /  0mm 0 W/m2
03:04 42.4 °F /  5.8 °C 42.2 °F /  5.7 °C 29.65in /  1003.9hPa NW 4.9mph /  7.9km/h 3.1mph /  5km/h 99% 0.00in /  0mm 0 W/m2
03:09 42.5 °F /  5.8 °C 42.3 °F /  5.7 °C 29.65in /  1003.9hPa NNW 3.8mph /  6.1km/h 6mph /  9.7km/h 99% 0.00in /  0mm 0 W/m2
03:14 42.5 °F /  5.8 °C 42.3 °F /  5.7 °C 29.65in /  1003.9hPa North 3.8mph /  6.1km/h 4mph /  6.4km/h 99% 0.00in /  0mm 0 W/m2
03:19 42.5 °F /  5.8 °C 42.3 °F /  5.7 °C 29.65in /  1003.9hPa North 4mph /  6.4km/h 5mph /  8km/h 99% 0.00in /  0mm 0 W/m2
03:24 42.5 °F /  5.8 °C 42.3 °F /  5.7 °C 29.65in /  1003.9hPa North 5.6mph /  9km/h 5mph /  8km/h 99% 0.00in /  0mm 0 W/m2
03:29 42.6 °F /  5.9 °C 42.4 °F /  5.8 °C 29.65in /  1003.9hPa North 4mph /  6.4km/h 7mph /  11.3km/h 99% 0.00in /  0mm 0 W/m2
03:34 42.6 °F /  5.9 °C 42.4 °F /  5.8 °C 29.65in /  1003.9hPa NNW 2.7mph /  4.3km/h 6mph /  9.7km/h 99% 0.00in /  0mm 0 W/m2
03:39 42.6 °F /  5.9 °C 42.4 °F /  5.8 °C 29.66in /  1004.3hPa North 3.1mph /  5km/h 5mph /  8km/h 99% 0.00in /  0mm 0 W/m2
03:44 42.6 °F /  5.9 °C 42.4 °F /  5.8 °C 29.66in /  1004.3hPa North 3.7mph /  6km/h 5mph /  8km/h 99% 0.00in /  0mm 0 W/m2
03:49 42.6 °F /  5.9 °C 42.4 °F /  5.8 °C 29.66in /  1004.3hPa North 3.7mph /  6km/h 5mph /  8km/h 99% 0.00in /  0mm 0 W/m2
03:54 42.6 °F /  5.9 °C 42.4 °F /  5.8 °C 29.67in /  1004.6hPa North 4.1mph /  6.6km/h 5mph /  8km/h 99% 0.00in /  0mm 0 W/m2
03:59 42.6 °F /  5.9 °C 42.4 °F /  5.8 °C 29.67in /  1004.6hPa North 4.7mph /  7.6km/h 5mph /  8km/h 99% 0.00in /  0mm 0 W/m2
04:04 42.6 °F /  5.9 °C 42.4 °F /  5.8 °C 29.67in /  1004.6hPa North 4.4mph /  7.1km/h 8mph /  12.9km/h 99% 0.00in /  0mm 0 W/m2
04:09 42.6 °F /  5.9 °C 42.4 °F /  5.8 °C 29.67in /  1004.6hPa North 3.7mph /  6km/h 5mph /  8km/h 99% 0.00in /  0mm 0 W/m2
04:14 42.6 °F /  5.9 °C 42.4 °F /  5.8 °C 29.67in /  1004.6hPa North 4.2mph /  6.8km/h 5mph /  8km/h 99% 0.00in /  0mm 0 W/m2
04:19 42.6 °F /  5.9 °C 42.4 °F /  5.8 °C 29.67in /  1004.6hPa North 3.9mph /  6.3km/h 5mph /  8km/h 99% 0.00in /  0mm 0 W/m2
04:24 42.6 °F /  5.9 °C 42.4 °F /  5.8 °C 29.67in /  1004.6hPa North 3.6mph /  5.8km/h 5mph /  8km/h 99% 0.00in /  0mm 0 W/m2
04:29 42.6 °F /  5.9 °C 42.4 °F /  5.8 °C 29.66in /  1004.3hPa North 3.2mph /  5.1km/h 6mph /  9.7km/h 99% 0.00in /  0mm 0 W/m2
04:34 42.6 °F /  5.9 °C 42.4 °F /  5.8 °C 29.66in /  1004.3hPa North 2.2mph /  3.5km/h 5mph /  8km/h 99% 0.00in /  0mm 0 W/m2
04:39 42.6 °F /  5.9 °C 42.4 °F /  5.8 °C 29.66in /  1004.3hPa North 1.2mph /  1.9km/h 2mph /  3.2km/h 99% 0.00in /  0mm 0 W/m2
04:44 42.6 °F /  5.9 °C 42.4 °F /  5.8 °C 29.66in /  1004.3hPa NNE 2.8mph /  4.5km/h 2mph /  3.2km/h 99% 0.00in /  0mm 0 W/m2
04:49 42.4 °F /  5.8 °C 42.2 °F /  5.7 °C 29.66in /  1004.3hPa NNE 2.1mph /  3.4km/h 3mph /  4.8km/h 99% 0.00in /  0mm 0 W/m2
04:54 42.4 °F /  5.8 °C 42.2 °F /  5.7 °C 29.66in /  1004.3hPa NNE 3.1mph /  5km/h 4mph /  6.4km/h 99% 0.00in /  0mm 0 W/m2
04:59 42.4 °F /  5.8 °C 42.2 °F /  5.7 °C 29.66in /  1004.3hPa NNE 3.3mph /  5.3km/h 4mph /  6.4km/h 99% 0.00in /  0mm 0 W/m2
05:04 42.4 °F /  5.8 °C 42.2 °F /  5.7 °C 29.66in /  1004.3hPa NNE 3.8mph /  6.1km/h 5mph /  8km/h 99% 0.00in /  0mm 0 W/m2
05:09 42.4 °F /  5.8 °C 42.2 °F /  5.7 °C 29.66in /  1004.3hPa North 4.2mph /  6.8km/h 5mph /  8km/h 99% 0.00in /  0mm 0 W/m2
05:14 42.4 °F /  5.8 °C 42.2 °F /  5.7 °C 29.66in /  1004.3hPa North 3.2mph /  5.1km/h 6mph /  9.7km/h 99% 0.00in /  0mm 0 W/m2
05:19 42.4 °F /  5.8 °C 42.2 °F /  5.7 °C 29.66in /  1004.3hPa NNE 3.4mph /  5.5km/h 4mph /  6.4km/h 99% 0.00in /  0mm 0 W/m2
05:24 42.4 °F /  5.8 °C 42.1 °F /  5.6 °C 29.66in /  1004.3hPa NNE 3.9mph /  6.3km/h 4mph /  6.4km/h 99% 0.00in /  0mm 0 W/m2
05:29 42.4 °F /  5.8 °C 42.1 °F /  5.6 °C 29.66in /  1004.3hPa NNE 3.7mph /  6km/h 6mph /  9.7km/h 99% 0.00in /  0mm 0 W/m2
05:34 42.3 °F /  5.7 °C 42 °F /  5.6 °C 29.65in /  1003.9hPa NNE 1.8mph /  2.9km/h 6mph /  9.7km/h 99% 0.00in /  0mm 0 W/m2
05:39 42.3 °F /  5.7 °C 42 °F /  5.6 °C 29.65in /  1003.9hPa North 1.9mph /  3.1km/h 2mph /  3.2km/h 99% 0.00in /  0mm 0 W/m2
05:44 42.3 °F /  5.7 °C 42 °F /  5.6 °C 29.65in /  1003.9hPa North 1.9mph /  3.1km/h 2mph /  3.2km/h 99% 0.00in /  0mm 0 W/m2
05:49 42.3 °F /  5.7 °C 42 °F /  5.6 °C 29.65in /  1003.9hPa North 2.2mph /  3.5km/h 2mph /  3.2km/h 99% 0.00in /  0mm 0 W/m2
05:54 42.3 °F /  5.7 °C 42 °F /  5.6 °C 29.66in /  1004.3hPa North 1.7mph /  2.7km/h 3mph /  4.8km/h 99% 0.00in /  0mm 0 W/m2
05:59 42.3 °F /  5.7 °C 42 °F /  5.6 °C 29.66in /  1004.3hPa North 2.2mph /  3.5km/h 2mph /  3.2km/h 99% 0.00in /  0mm 0 W/m2
06:04 42.3 °F /  5.7 °C 42 °F /  5.6 °C 29.66in /  1004.3hPa NE 2.3mph /  3.7km/h 2mph /  3.2km/h 99% 0.00in /  0mm 0 W/m2
06:09 42.3 °F /  5.7 °C 42 °F /  5.6 °C 29.66in /  1004.3hPa NE 0.2mph /  0.3km/h 2mph /  3.2km/h 99% 0.00in /  0mm 0 W/m2
06:14 42.3 °F /  5.7 °C 42.1 °F /  5.6 °C 29.66in /  1004.3hPa NNE 0.3mph /  0.5km/h 1mph /  1.6km/h 99% 0.00in /  0mm 0 W/m2
06:19 42.4 °F /  5.8 °C 42.1 °F /  5.6 °C 29.66in /  1004.3hPa North 1.7mph /  2.7km/h 2mph /  3.2km/h 99% 0.00in /  0mm 0 W/m2
06:24 42.4 °F /  5.8 °C 42.2 °F /  5.7 °C 29.66in /  1004.3hPa North 1.4mph /  2.3km/h 3mph /  4.8km/h 99% 0.00in /  0mm 0 W/m2
06:29 42.4 °F /  5.8 °C 42.2 °F /  5.7 °C 29.66in /  1004.3hPa NNE 1.6mph /  2.6km/h 3mph /  4.8km/h 99% 0.00in /  0mm 0 W/m2
06:34 42.4 °F /  5.8 °C 42.2 °F /  5.7 °C 29.66in /  1004.3hPa NNE 0.5mph /  0.8km/h 2mph /  3.2km/h 99% 0.00in /  0mm 0 W/m2
06:39 42.4 °F /  5.8 °C 42.2 °F /  5.7 °C 29.66in /  1004.3hPa NE 1.8mph /  2.9km/h 1.3mph /  2.1km/h 99% 0.00in /  0mm 0 W/m2
06:44 42.4 °F /  5.8 °C 42.2 °F /  5.7 °C 29.66in /  1004.3hPa NE 2.6mph /  4.2km/h 3mph /  4.8km/h 99% 0.00in /  0mm 1 W/m2
06:49 42.4 °F /  5.8 °C 42.1 °F /  5.6 °C 29.66in /  1004.3hPa NNE 1.5mph /  2.4km/h 3mph /  4.8km/h 99% 0.00in /  0mm 2 W/m2
06:54 42.4 °F /  5.8 °C 42.2 °F /  5.7 °C 29.66in /  1004.3hPa North 3.5mph /  5.6km/h 3.6mph /  5.8km/h 99% 0.00in /  0mm 2 W/m2
06:59 42.4 °F /  5.8 °C 42.2 °F /  5.7 °C 29.66in /  1004.3hPa North 1.9mph /  3.1km/h 6mph /  9.7km/h 99% 0.00in /  0mm 3 W/m2
07:04 42.4 °F /  5.8 °C 42.2 °F /  5.7 °C 29.66in /  1004.3hPa North 2.1mph /  3.4km/h 3mph /  4.8km/h 99% 0.00in /  0mm 6 W/m2
07:09 42.4 °F /  5.8 °C 42.2 °F /  5.7 °C 29.66in /  1004.3hPa North 3.7mph /  6km/h 3mph /  4.8km/h 99% 0.00in /  0mm 6 W/m2
07:14 42.4 °F /  5.8 °C 42.2 °F /  5.7 °C 29.67in /  1004.6hPa North 1.9mph /  3.1km/h 6mph /  9.7km/h 99% 0.00in /  0mm 9 W/m2
07:19 42.4 °F /  5.8 °C 42.2 °F /  5.7 °C 29.67in /  1004.6hPa North 0.8mph /  1.3km/h 3mph /  4.8km/h 99% 0.00in /  0mm 10 W/m2
07:24 42.4 °F /  5.8 °C 42.2 °F /  5.7 °C 29.67in /  1004.6hPa North 2.3mph /  3.7km/h 2mph /  3.2km/h 99% 0.00in /  0mm 11 W/m2
07:29 42.6 °F /  5.9 °C 42.4 °F /  5.8 °C 29.67in /  1004.6hPa North 3mph /  4.8km/h 3mph /  4.8km/h 99% 0.00in /  0mm 15 W/m2
07:34 42.6 °F /  5.9 °C 42.4 °F /  5.8 °C 29.67in /  1004.6hPa NNE 1.7mph /  2.7km/h 3mph /  4.8km/h 99% 0.00in /  0mm 20 W/m2
07:39 42.6 °F /  5.9 °C 42.4 °F /  5.8 °C 29.67in /  1004.6hPa North 1.2mph /  1.9km/h 3mph /  4.8km/h 99% 0.00in /  0mm 25 W/m2
07:44 42.7 °F /  5.9 °C 42.4 °F /  5.8 °C 29.67in /  1004.6hPa NNW 1.7mph /  2.7km/h 2mph /  3.2km/h 99% 0.00in /  0mm 28 W/m2
07:49 42.8 °F /  6 °C 42.5 °F /  5.8 °C 29.68in /  1005hPa North 0.9mph /  1.4km/h 2mph /  3.2km/h 99% 0.00in /  0mm 19 W/m2
07:54 42.8 °F /  6 °C 42.5 °F /  5.8 °C 29.68in /  1005hPa North 0.4mph /  0.6km/h 2mph /  3.2km/h 99% 0.00in /  0mm 19 W/m2
07:59 42.8 °F /  6 °C 42.5 °F /  5.8 °C 29.68in /  1005hPa North 2mph /  3.2km/h 2mph /  3.2km/h 99% 0.00in /  0mm 17 W/m2
08:04 42.9 °F /  6.1 °C 42.6 °F /  5.9 °C 29.68in /  1005hPa North 2.8mph /  4.5km/h 3mph /  4.8km/h 99% 0.00in /  0mm 43 W/m2
08:09 43 °F /  6.1 °C 42.7 °F /  5.9 °C 29.68in /  1005hPa North 2.6mph /  4.2km/h 4mph /  6.4km/h 99% 0.00in /  0mm 80 W/m2
08:14 43.1 °F /  6.2 °C 42.8 °F /  6 °C 29.67in /  1004.6hPa NNE 2.3mph /  3.7km/h 4mph /  6.4km/h 99% 0.00in /  0mm 106 W/m2
08:19 43.2 °F /  6.2 °C 43 °F /  6.1 °C 29.67in /  1004.6hPa NNE 2.5mph /  4km/h 3mph /  4.8km/h 99% 0.00in /  0mm 80 W/m2
08:24 43.3 °F /  6.3 °C 43.1 °F /  6.2 °C 29.68in /  1005hPa NNE 1.7mph /  2.7km/h 3mph /  4.8km/h 99% 0.00in /  0mm 43 W/m2
08:29 43.3 °F /  6.3 °C 43.1 °F /  6.2 °C 29.68in /  1005hPa North 2.8mph /  4.5km/h 2.7mph /  4.3km/h 99% 0.00in /  0mm 30 W/m2
08:34 43.4 °F /  6.3 °C 43.2 °F /  6.2 °C 29.68in /  1005hPa North 3.1mph /  5km/h 4mph /  6.4km/h 99% 0.00in /  0mm 34 W/m2
08:39 43.5 °F /  6.4 °C 43.3 °F /  6.3 °C 29.68in /  1005hPa North 3.9mph /  6.3km/h 5mph /  8km/h 99% 0.00in /  0mm 45 W/m2
08:44 43.5 °F /  6.4 °C 43.3 °F /  6.3 °C 29.68in /  1005hPa North 4mph /  6.4km/h 5mph /  8km/h 99% 0.00in /  0mm 43 W/m2
08:49 43.5 °F /  6.4 °C 43.3 °F /  6.3 °C 29.68in /  1005hPa North 3.7mph /  6km/h 5mph /  8km/h 99% 0.00in /  0mm 62 W/m2
08:54 43.5 °F /  6.4 °C 43.3 °F /  6.3 °C 29.68in /  1005hPa North 3.1mph /  5km/h 5mph /  8km/h 99% 0.00in /  0mm 75 W/m2
08:59 43.6 °F /  6.4 °C 43.3 °F /  6.3 °C 29.68in /  1005hPa North 3.2mph /  5.1km/h 3mph /  4.8km/h 99% 0.00in /  0mm 71 W/m2
09:04 43.7 °F /  6.5 °C 43.4 °F /  6.3 °C 29.68in /  1005hPa North 3.4mph /  5.5km/h 4mph /  6.4km/h 99% 0.00in /  0mm 65 W/m2
09:09 43.7 °F /  6.5 °C 43.4 °F /  6.3 °C 29.68in /  1005hPa North 3.4mph /  5.5km/h 4mph /  6.4km/h 99% 0.00in /  0mm 83 W/m2
09:14 43.8 °F /  6.6 °C 43.5 °F /  6.4 °C 29.68in /  1005hPa NNE 3.6mph /  5.8km/h 4mph /  6.4km/h 99% 0.00in /  0mm 74 W/m2
09:19 43.9 °F /  6.6 °C 43.6 °F /  6.4 °C 29.68in /  1005hPa North 4mph /  6.4km/h 5mph /  8km/h 99% 0.00in /  0mm 75 W/m2
09:24 43.9 °F /  6.6 °C 43.6 °F /  6.4 °C 29.68in /  1005hPa NNE 3.1mph /  5km/h 5mph /  8km/h 99% 0.00in /  0mm 106 W/m2
09:29 44.1 °F /  6.7 °C 43.8 °F /  6.6 °C 29.68in /  1005hPa NNE 3.4mph /  5.5km/h 4mph /  6.4km/h 99% 0.00in /  0mm 106 W/m2
09:34 44.1 °F /  6.7 °C 43.8 °F /  6.6 °C 29.68in /  1005hPa NNE 3.4mph /  5.5km/h 4mph /  6.4km/h 99% 0.00in /  0mm 87 W/m2
09:39 44.2 °F /  6.8 °C 44 °F /  6.7 °C 29.68in /  1005hPa NNE 3.8mph /  6.1km/h 5mph /  8km/h 99% 0.00in /  0mm 87 W/m2
09:44 44.2 °F /  6.8 °C 44 °F /  6.7 °C 29.68in /  1005hPa NNE 4mph /  6.4km/h 5mph /  8km/h 99% 0.00in /  0mm 84 W/m2
09:49 44.2 °F /  6.8 °C 44 °F /  6.7 °C 29.68in /  1005hPa NNE 3.4mph /  5.5km/h 5mph /  8km/h 99% 0.00in /  0mm 74 W/m2
09:54 44.2 °F /  6.8 °C 44 °F /  6.7 °C 29.68in /  1005hPa North 2.9mph /  4.7km/h 4mph /  6.4km/h 99% 0.00in /  0mm 75 W/m2
09:59 44.3 °F /  6.8 °C 44.1 °F /  6.7 °C 29.68in /  1005hPa North 2.8mph /  4.5km/h 3mph /  4.8km/h 99% 0.00in /  0mm 77 W/m2
10:04 44.4 °F /  6.9 °C 44.2 °F /  6.8 °C 29.68in /  1005hPa North 2.3mph /  3.7km/h 4mph /  6.4km/h 99% 0.00in /  0mm 114 W/m2
10:09 44.5 °F /  6.9 °C 44.3 °F /  6.8 °C 29.68in /  1005hPa NNE 2.7mph /  4.3km/h 3mph /  4.8km/h 99% 0.00in /  0mm 123 W/m2
10:14 44.6 °F /  7 °C 44.3 °F /  6.8 °C 29.68in /  1005hPa NNE 2.5mph /  4km/h 3mph /  4.8km/h 99% 0.00in /  0mm 146 W/m2
10:19 44.8 °F /  7.1 °C 44.5 °F /  6.9 °C 29.68in /  1005hPa NNE 2.4mph /  3.9km/h 3mph /  4.8km/h 99% 0.00in /  0mm 145 W/m2
10:24 44.9 °F /  7.2 °C 44.6 °F /  7 °C 29.67in /  1004.6hPa NNE 2.2mph /  3.5km/h 3mph /  4.8km/h 99% 0.00in /  0mm 137 W/m2
10:29 45 °F /  7.2 °C 44.7 °F /  7.1 °C 29.67in /  1004.6hPa North 1.4mph /  2.3km/h 3mph /  4.8km/h 99% 0.00in /  0mm 139 W/m2
10:34 45 °F /  7.2 °C 44.7 °F /  7.1 °C 29.67in /  1004.6hPa North 1.3mph /  2.1km/h 2mph /  3.2km/h 99% 0.00in /  0mm 155 W/m2
10:39 45 °F /  7.2 °C 44.8 °F /  7.1 °C 29.67in /  1004.6hPa North 0.9mph /  1.4km/h 2mph /  3.2km/h 99% 0.00in /  0mm 150 W/m2
10:44 45.1 °F /  7.3 °C 44.9 °F /  7.2 °C 29.67in /  1004.6hPa NW 1.5mph /  2.4km/h 2mph /  3.2km/h 99% 0.00in /  0mm 112 W/m2
10:49 45.2 °F /  7.3 °C 45 °F /  7.2 °C 29.67in /  1004.6hPa WNW 1.6mph /  2.6km/h 2mph /  3.2km/h 99% 0.00in /  0mm 119 W/m2
10:54 45.2 °F /  7.3 °C 45 °F /  7.2 °C 29.66in /  1004.3hPa NNW 1.2mph /  1.9km/h 2mph /  3.2km/h 99% 0.00in /  0mm 260 W/m2
10:59 45.2 °F /  7.3 °C 45 °F /  7.2 °C 29.66in /  1004.3hPa NW 1.9mph /  3.1km/h 2mph /  3.2km/h 99% 0.00in /  0mm 261 W/m2
11:04 45.5 °F /  7.5 °C 45.2 °F /  7.3 °C 29.66in /  1004.3hPa NW 2.2mph /  3.5km/h 2mph /  3.2km/h 99% 0.00in /  0mm 182 W/m2
11:09 45.5 °F /  7.5 °C 45.2 °F /  7.3 °C 29.66in /  1004.3hPa NNW 0.8mph /  1.3km/h 2mph /  3.2km/h 99% 0.00in /  0mm 83 W/m2
11:14 45.6 °F /  7.6 °C 45.3 °F /  7.4 °C 29.66in /  1004.3hPa Calm   1mph /  1.6km/h 99% 0.00in /  0mm 73 W/m2
11:19 45.7 °F /  7.6 °C 45.4 °F /  7.4 °C 29.66in /  1004.3hPa North 1.8mph /  2.9km/h 1.1mph /  1.8km/h 99% 0.00in /  0mm 114 W/m2
11:24 45.7 °F /  7.6 °C 45.4 °F /  7.4 °C 29.66in /  1004.3hPa North 2.3mph /  3.7km/h 2.2mph /  3.5km/h 99% 0.00in /  0mm 178 W/m2
11:29 45.7 °F /  7.6 °C 45.4 °F /  7.4 °C 29.66in /  1004.3hPa NE 2.9mph /  4.7km/h 3mph /  4.8km/h 99% 0.00in /  0mm 244 W/m2
11:34 45.7 °F /  7.6 °C 45.4 °F /  7.4 °C 29.66in /  1004.3hPa ESE 2.2mph /  3.5km/h 3mph /  4.8km/h 99% 0.00in /  0mm 186 W/m2
11:39 45.8 °F /  7.7 °C 45.5 °F /  7.5 °C 29.66in /  1004.3hPa ENE 1.5mph /  2.4km/h 2mph /  3.2km/h 99% 0.00in /  0mm 103 W/m2
11:44 45.9 °F /  7.7 °C 45.7 °F /  7.6 °C 29.66in /  1004.3hPa NNW 0.2mph /  0.3km/h 1mph /  1.6km/h 99% 0.00in /  0mm 167 W/m2
11:49 46 °F /  7.8 °C 45.8 °F /  7.7 °C 29.66in /  1004.3hPa WNW 2.1mph /  3.4km/h 2mph /  3.2km/h 99% 0.00in /  0mm 178 W/m2
11:54 46 °F /  7.8 °C 45.8 °F /  7.7 °C 29.66in /  1004.3hPa West 1.2mph /  1.9km/h 2mph /  3.2km/h 99% 0.00in /  0mm 178 W/m2
11:59 46 °F /  7.8 °C 45.8 °F /  7.7 °C 29.66in /  1004.3hPa West 1.1mph /  1.8km/h 1mph /  1.6km/h 99% 0.00in /  0mm 188 W/m2
12:04 46.1 °F /  7.8 °C 45.9 °F /  7.7 °C 29.66in /  1004.3hPa SW 2.1mph /  3.4km/h 2mph /  3.2km/h 99% 0.00in /  0mm 188 W/m2
12:09 46.3 °F /  7.9 °C 46 °F /  7.8 °C 29.66in /  1004.3hPa ENE 2.1mph /  3.4km/h 2mph /  3.2km/h 99% 0.00in /  0mm 188 W/m2
Knjazevac, Serbia
Compliments of Weather Underground - 2 mb